Terminal Aerodrome Forecast
Issued by NWS Quad Cities IA IL

Home | Current Version | Previous Version | Text Only | Print | Product List | Glossary On
Versions: 1 2 3 4 5 6 7 8 9 10 11 12 13 14 15
000
FTUS43 KDVN 081100
TAFMLI
TAF
KMLI 081120Z 0812/0912 27010KT P6SM BKN060
     FM081400 30015G23KT P6SM SCT050
     FM090100 29005KT P6SM SCT250=

USA.gov is the U.S. government's official web portal to all federal, state and local government web resources and services.